sensor_id;sensor_type;location;lat;lon;timestamp;temperature;humidity
41678;DHT22;27364;49.026;8.712;2023-02-28T00:00:51;0.30;95.40
41678;DHT22;27364;49.026;8.712;2023-02-28T00:03:16;0.40;95.80
41678;DHT22;27364;49.026;8.712;2023-02-28T00:05:42;0.40;95.70
41678;DHT22;27364;49.026;8.712;2023-02-28T00:08:08;0.40;95.90
41678;DHT22;27364;49.026;8.712;2023-02-28T00:10:34;0.40;95.70
41678;DHT22;27364;49.026;8.712;2023-02-28T00:13:02;0.50;95.80
41678;DHT22;27364;49.026;8.712;2023-02-28T00:15:27;0.40;95.60
41678;DHT22;27364;49.026;8.712;2023-02-28T00:17:53;0.40;95.80
41678;DHT22;27364;49.026;8.712;2023-02-28T00:20:19;0.40;95.90
41678;DHT22;27364;49.026;8.712;2023-02-28T00:22:48;0.40;95.80
41678;DHT22;27364;49.026;8.712;2023-02-28T00:25:15;0.40;96.30
41678;DHT22;27364;49.026;8.712;2023-02-28T00:27:42;0.40;96.30
41678;DHT22;27364;49.026;8.712;2023-02-28T00:30:10;0.40;96.50
41678;DHT22;27364;49.026;8.712;2023-02-28T00:32:36;0.30;96.50
41678;DHT22;27364;49.026;8.712;2023-02-28T00:35:03;0.30;96.80
41678;DHT22;27364;49.026;8.712;2023-02-28T00:37:29;0.10;97.10
41678;DHT22;27364;49.026;8.712;2023-02-28T00:39:54;0.10;97.50
41678;DHT22;27364;49.026;8.712;2023-02-28T00:42:20;0.10;97.70
41678;DHT22;27364;49.026;8.712;2023-02-28T00:44:45;0.00;97.70
41678;DHT22;27364;49.026;8.712;2023-02-28T00:47:11;-0.10;98.20
41678;DHT22;27364;49.026;8.712;2023-02-28T00:49:36;-0.10;98.50
41678;DHT22;27364;49.026;8.712;2023-02-28T00:52:02;-0.10;98.90
41678;DHT22;27364;49.026;8.712;2023-02-28T00:54:28;-0.20;98.90
41678;DHT22;27364;49.026;8.712;2023-02-28T00:56:54;-0.20;99.20
41678;DHT22;27364;49.026;8.712;2023-02-28T00:59:20;-0.20;99.60
41678;DHT22;27364;49.026;8.712;2023-02-28T01:01:48;-0.30;99.60
41678;DHT22;27364;49.026;8.712;2023-02-28T01:04:14;-0.20;99.80
41678;DHT22;27364;49.026;8.712;2023-02-28T01:06:39;-0.20;99.90
41678;DHT22;27364;49.026;8.712;2023-02-28T01:09:06;-0.20;99.90
41678;DHT22;27364;49.026;8.712;2023-02-28T01:11:32;-0.20;99.90
41678;DHT22;27364;49.026;8.712;2023-02-28T01:13:59;-0.20;99.90
41678;DHT22;27364;49.026;8.712;2023-02-28T01:16:25;-0.10;99.90
41678;DHT22;27364;49.026;8.712;2023-02-28T01:18:50;-0.10;99.90
41678;DHT22;27364;49.026;8.712;2023-02-28T01:21:18;0.00;99.90
41678;DHT22;27364;49.026;8.712;2023-02-28T01:23:44;0.10;99.90
41678;DHT22;27364;49.026;8.712;2023-02-28T01:26:20;0.10;99.90
41678;DHT22;27364;49.026;8.712;2023-02-28T01:28:46;0.00;99.80
41678;DHT22;27364;49.026;8.712;2023-02-28T01:31:12;0.00;99.90
41678;DHT22;27364;49.026;8.712;2023-02-28T01:33:39;-0.10;99.90
41678;DHT22;27364;49.026;8.712;2023-02-28T01:36:16;-0.10;99.90
41678;DHT22;27364;49.026;8.712;2023-02-28T01:38:42;-0.20;99.90
41678;DHT22;27364;49.026;8.712;2023-02-28T01:46:07;-0.10;99.90
41678;DHT22;27364;49.026;8.712;2023-02-28T01:48:38;-0.10;99.90
41678;DHT22;27364;49.026;8.712;2023-02-28T01:51:09;-0.20;99.90
41678;DHT22;27364;49.026;8.712;2023-02-28T01:53:41;-0.20;99.90
41678;DHT22;27364;49.026;8.712;2023-02-28T01:56:12;-0.20;99.90
41678;DHT22;27364;49.026;8.712;2023-02-28T01:58:39;-0.20;99.90
41678;DHT22;27364;49.026;8.712;2023-02-28T02:01:05;-0.20;99.90
41678;DHT22;27364;49.026;8.712;2023-02-28T02:03:31;-0.20;99.90
41678;DHT22;27364;49.026;8.712;2023-02-28T02:05:57;-0.20;99.90
41678;DHT22;27364;49.026;8.712;2023-02-28T02:08:25;-0.30;99.90
41678;DHT22;27364;49.026;8.712;2023-02-28T02:10:54;-0.30;99.90
41678;DHT22;27364;49.026;8.712;2023-02-28T02:13:34;-0.30;99.90
41678;DHT22;27364;49.026;8.712;2023-02-28T02:16:28;-0.20;99.90
41678;DHT22;27364;49.026;8.712;2023-02-28T02:22:37;-0.20;99.90
41678;DHT22;27364;49.026;8.712;2023-02-28T02:25:11;-0.20;99.90
41678;DHT22;27364;49.026;8.712;2023-02-28T02:33:10;-0.40;99.90
41678;DHT22;27364;49.026;8.712;2023-02-28T02:41:10;-0.40;99.90
41678;DHT22;27364;49.026;8.712;2023-02-28T02:43:56;-0.50;99.90
41678;DHT22;27364;49.026;8.712;2023-02-28T02:46:35;-0.50;99.90
41678;DHT22;27364;49.026;8.712;2023-02-28T02:49:05;-0.50;99.90
41678;DHT22;27364;49.026;8.712;2023-02-28T02:51:32;-0.50;99.90
41678;DHT22;27364;49.026;8.712;2023-02-28T02:54:08;-0.50;99.90
41678;DHT22;27364;49.026;8.712;2023-02-28T02:56:36;-0.60;99.90
41678;DHT22;27364;49.026;8.712;2023-02-28T02:59:04;-0.50;99.90
41678;DHT22;27364;49.026;8.712;2023-02-28T03:01:32;-0.50;99.90
41678;DHT22;27364;49.026;8.712;2023-02-28T03:04:07;-0.50;99.90
41678;DHT22;27364;49.026;8.712;2023-02-28T03:06:33;-0.40;99.90
41678;DHT22;27364;49.026;8.712;2023-02-28T03:09:00;-0.30;99.90
41678;DHT22;27364;49.026;8.712;2023-02-28T03:11:27;-0.20;99.90
41678;DHT22;27364;49.026;8.712;2023-02-28T03:14:22;-0.20;99.90
41678;DHT22;27364;49.026;8.712;2023-02-28T03:25:07;-0.10;99.90
41678;DHT22;27364;49.026;8.712;2023-02-28T03:27:48;-0.10;99.90
41678;DHT22;27364;49.026;8.712;2023-02-28T03:30:42;0.10;99.90
41678;DHT22;27364;49.026;8.712;2023-02-28T03:33:17;0.10;99.90
41678;DHT22;27364;49.026;8.712;2023-02-28T03:35:56;0.10;99.90
41678;DHT22;27364;49.026;8.712;2023-02-28T03:44:09;0.10;99.90
41678;DHT22;27364;49.026;8.712;2023-02-28T03:46:44;0.10;99.90
41678;DHT22;27364;49.026;8.712;2023-02-28T03:49:20;0.20;99.90
41678;DHT22;27364;49.026;8.712;2023-02-28T03:51:50;0.20;99.90
41678;DHT22;27364;49.026;8.712;2023-02-28T03:54:21;0.20;99.90
41678;DHT22;27364;49.026;8.712;2023-02-28T03:56:52;0.20;99.90
41678;DHT22;27364;49.026;8.712;2023-02-28T03:59:25;0.20;99.90
41678;DHT22;27364;49.026;8.712;2023-02-28T04:01:51;0.30;99.90
41678;DHT22;27364;49.026;8.712;2023-02-28T04:04:17;0.20;99.90
41678;DHT22;27364;49.026;8.712;2023-02-28T04:06:43;0.30;99.90
41678;DHT22;27364;49.026;8.712;2023-02-28T04:09:12;0.20;99.90
41678;DHT22;27364;49.026;8.712;2023-02-28T04:11:59;0.30;99.90
41678;DHT22;27364;49.026;8.712;2023-02-28T04:14:24;0.30;99.90
41678;DHT22;27364;49.026;8.712;2023-02-28T04:16:50;0.30;99.90
41678;DHT22;27364;49.026;8.712;2023-02-28T04:19:19;0.30;99.90
41678;DHT22;27364;49.026;8.712;2023-02-28T04:21:51;0.20;99.90
41678;DHT22;27364;49.026;8.712;2023-02-28T04:24:19;0.20;99.90
41678;DHT22;27364;49.026;8.712;2023-02-28T04:26:47;0.20;99.90
41678;DHT22;27364;49.026;8.712;2023-02-28T04:29:19;0.10;99.90
41678;DHT22;27364;49.026;8.712;2023-02-28T04:31:44;0.20;99.90
41678;DHT22;27364;49.026;8.712;2023-02-28T04:34:10;0.10;99.90
41678;DHT22;27364;49.026;8.712;2023-02-28T04:36:36;0.20;99.90
41678;DHT22;27364;49.026;8.712;2023-02-28T04:39:02;0.20;99.90
41678;DHT22;27364;49.026;8.712;2023-02-28T04:41:29;0.10;99.90
41678;DHT22;27364;49.026;8.712;2023-02-28T04:43:55;0.10;99.90
41678;DHT22;27364;49.026;8.712;2023-02-28T04:46:21;0.10;99.90
41678;DHT22;27364;49.026;8.712;2023-02-28T04:48:47;0.10;99.90
41678;DHT22;27364;49.026;8.712;2023-02-28T04:51:16;0.20;99.90
41678;DHT22;27364;49.026;8.712;2023-02-28T04:53:42;0.20;99.90
41678;DHT22;27364;49.026;8.712;2023-02-28T04:56:11;0.10;99.90
41678;DHT22;27364;49.026;8.712;2023-02-28T04:58:37;0.10;99.90
41678;DHT22;27364;49.026;8.712;2023-02-28T05:01:04;0.20;99.90
41678;DHT22;27364;49.026;8.712;2023-02-28T05:03:30;0.10;99.90
41678;DHT22;27364;49.026;8.712;2023-02-28T05:05:55;0.10;99.90
41678;DHT22;27364;49.026;8.712;2023-02-28T05:08:21;0.20;99.90
41678;DHT22;27364;49.026;8.712;2023-02-28T05:10:47;0.20;99.90
41678;DHT22;27364;49.026;8.712;2023-02-28T05:13:12;0.10;99.90
41678;DHT22;27364;49.026;8.712;2023-02-28T05:15:38;0.10;99.90
41678;DHT22;27364;49.026;8.712;2023-02-28T05:18:04;0.20;99.90
41678;DHT22;27364;49.026;8.712;2023-02-28T05:20:29;0.10;99.90
41678;DHT22;27364;49.026;8.712;2023-02-28T05:22:56;0.10;99.90
41678;DHT22;27364;49.026;8.712;2023-02-28T05:25:23;0.10;99.90
41678;DHT22;27364;49.026;8.712;2023-02-28T05:27:49;0.10;99.90
41678;DHT22;27364;49.026;8.712;2023-02-28T05:30:16;0.10;99.90
41678;DHT22;27364;49.026;8.712;2023-02-28T05:32:50;0.10;99.90
41678;DHT22;27364;49.026;8.712;2023-02-28T05:35:16;0.10;99.90
41678;DHT22;27364;49.026;8.712;2023-02-28T05:37:41;0.10;99.90
41678;DHT22;27364;49.026;8.712;2023-02-28T05:40:07;0.10;99.90
41678;DHT22;27364;49.026;8.712;2023-02-28T05:42:36;0.10;99.90
41678;DHT22;27364;49.026;8.712;2023-02-28T05:45:03;0.10;99.90
41678;DHT22;27364;49.026;8.712;2023-02-28T05:47:29;0.20;99.90
41678;DHT22;27364;49.026;8.712;2023-02-28T05:49:54;0.10;99.90
41678;DHT22;27364;49.026;8.712;2023-02-28T05:52:20;0.10;99.90
41678;DHT22;27364;49.026;8.712;2023-02-28T05:54:46;0.10;99.90
41678;DHT22;27364;49.026;8.712;2023-02-28T05:57:12;0.10;99.90
41678;DHT22;27364;49.026;8.712;2023-02-28T05:59:37;0.20;99.90
41678;DHT22;27364;49.026;8.712;2023-02-28T06:02:06;0.20;99.90
41678;DHT22;27364;49.026;8.712;2023-02-28T06:04:35;0.20;99.90
41678;DHT22;27364;49.026;8.712;2023-02-28T06:07:01;0.10;99.90
41678;DHT22;27364;49.026;8.712;2023-02-28T06:09:27;0.20;99.90
41678;DHT22;27364;49.026;8.712;2023-02-28T06:11:52;0.20;99.90
41678;DHT22;27364;49.026;8.712;2023-02-28T06:14:19;0.20;99.90
41678;DHT22;27364;49.026;8.712;2023-02-28T06:16:44;0.20;99.90
41678;DHT22;27364;49.026;8.712;2023-02-28T06:19:10;0.20;99.90
41678;DHT22;27364;49.026;8.712;2023-02-28T06:21:36;0.20;99.90
41678;DHT22;27364;49.026;8.712;2023-02-28T06:24:03;0.30;99.90
41678;DHT22;27364;49.026;8.712;2023-02-28T06:26:29;0.30;99.90
41678;DHT22;27364;49.026;8.712;2023-02-28T06:28:55;0.20;99.90
41678;DHT22;27364;49.026;8.712;2023-02-28T06:31:26;0.30;99.90
41678;DHT22;27364;49.026;8.712;2023-02-28T06:33:54;0.30;99.90
41678;DHT22;27364;49.026;8.712;2023-02-28T06:36:21;0.30;99.90
41678;DHT22;27364;49.026;8.712;2023-02-28T06:38:46;0.30;99.90
41678;DHT22;27364;49.026;8.712;2023-02-28T06:41:18;0.30;99.90
41678;DHT22;27364;49.026;8.712;2023-02-28T06:43:44;0.30;99.90
41678;DHT22;27364;49.026;8.712;2023-02-28T06:46:14;0.30;99.90
41678;DHT22;27364;49.026;8.712;2023-02-28T06:48:40;0.40;99.90
41678;DHT22;27364;49.026;8.712;2023-02-28T06:51:12;0.40;99.90
41678;DHT22;27364;49.026;8.712;2023-02-28T06:53:39;0.40;99.90
41678;DHT22;27364;49.026;8.712;2023-02-28T06:56:06;0.40;99.90
41678;DHT22;27364;49.026;8.712;2023-02-28T06:58:32;0.40;99.90
41678;DHT22;27364;49.026;8.712;2023-02-28T07:00:59;0.40;99.90
41678;DHT22;27364;49.026;8.712;2023-02-28T07:03:25;0.50;99.90
41678;DHT22;27364;49.026;8.712;2023-02-28T07:05:50;0.50;99.90
41678;DHT22;27364;49.026;8.712;2023-02-28T07:08:16;0.40;99.90
41678;DHT22;27364;49.026;8.712;2023-02-28T07:10:42;0.50;99.90
41678;DHT22;27364;49.026;8.712;2023-02-28T07:13:08;0.50;99.90
41678;DHT22;27364;49.026;8.712;2023-02-28T07:15:35;0.40;99.90
41678;DHT22;27364;49.026;8.712;2023-02-28T07:18:02;0.40;99.90
41678;DHT22;27364;49.026;8.712;2023-02-28T07:20:29;0.40;99.90
41678;DHT22;27364;49.026;8.712;2023-02-28T07:22:55;0.40;99.90
41678;DHT22;27364;49.026;8.712;2023-02-28T07:25:23;0.50;99.90
41678;DHT22;27364;49.026;8.712;2023-02-28T07:27:48;0.50;99.90
41678;DHT22;27364;49.026;8.712;2023-02-28T07:30:14;0.50;99.90
41678;DHT22;27364;49.026;8.712;2023-02-28T07:32:39;0.50;99.90
41678;DHT22;27364;49.026;8.712;2023-02-28T07:35:05;0.40;99.90
41678;DHT22;27364;49.026;8.712;2023-02-28T07:37:31;0.50;99.90
41678;DHT22;27364;49.026;8.712;2023-02-28T07:40:03;0.50;99.90
41678;DHT22;27364;49.026;8.712;2023-02-28T07:42:31;0.50;99.90
41678;DHT22;27364;49.026;8.712;2023-02-28T07:44:57;0.60;99.90
41678;DHT22;27364;49.026;8.712;2023-02-28T07:47:24;0.60;99.90
41678;DHT22;27364;49.026;8.712;2023-02-28T07:49:49;0.60;99.90
41678;DHT22;27364;49.026;8.712;2023-02-28T07:52:15;0.70;99.90
41678;DHT22;27364;49.026;8.712;2023-02-28T07:54:41;0.60;99.90
41678;DHT22;27364;49.026;8.712;2023-02-28T07:57:06;0.60;99.90
41678;DHT22;27364;49.026;8.712;2023-02-28T07:59:32;0.60;99.90
41678;DHT22;27364;49.026;8.712;2023-02-28T08:01:58;0.70;99.90
41678;DHT22;27364;49.026;8.712;2023-02-28T08:04:25;0.70;99.90
41678;DHT22;27364;49.026;8.712;2023-02-28T08:06:50;0.70;99.90
41678;DHT22;27364;49.026;8.712;2023-02-28T08:09:18;0.70;99.90
41678;DHT22;27364;49.026;8.712;2023-02-28T08:11:44;0.70;99.90
41678;DHT22;27364;49.026;8.712;2023-02-28T08:14:09;0.70;99.90
41678;DHT22;27364;49.026;8.712;2023-02-28T08:16:35;0.70;99.90
41678;DHT22;27364;49.026;8.712;2023-02-28T08:19:01;0.80;99.90
41678;DHT22;27364;49.026;8.712;2023-02-28T08:21:26;0.80;99.90
41678;DHT22;27364;49.026;8.712;2023-02-28T08:23:52;0.80;99.90
41678;DHT22;27364;49.026;8.712;2023-02-28T08:26:18;0.80;99.90
41678;DHT22;27364;49.026;8.712;2023-02-28T08:28:44;0.80;99.90
41678;DHT22;27364;49.026;8.712;2023-02-28T08:31:12;0.90;99.90
41678;DHT22;27364;49.026;8.712;2023-02-28T08:33:39;0.90;99.90
41678;DHT22;27364;49.026;8.712;2023-02-28T08:36:05;1.00;99.90
41678;DHT22;27364;49.026;8.712;2023-02-28T08:38:31;1.00;99.90
41678;DHT22;27364;49.026;8.712;2023-02-28T08:40:58;1.00;99.90
41678;DHT22;27364;49.026;8.712;2023-02-28T08:43:24;1.10;99.90
41678;DHT22;27364;49.026;8.712;2023-02-28T08:45:54;1.20;99.90
41678;DHT22;27364;49.026;8.712;2023-02-28T08:48:22;1.20;99.90
41678;DHT22;27364;49.026;8.712;2023-02-28T08:51:04;1.30;99.90
41678;DHT22;27364;49.026;8.712;2023-02-28T08:53:31;1.30;99.90
41678;DHT22;27364;49.026;8.712;2023-02-28T08:56:19;1.40;99.90
41678;DHT22;27364;49.026;8.712;2023-02-28T08:58:45;1.40;99.90
41678;DHT22;27364;49.026;8.712;2023-02-28T09:01:14;1.50;99.90
41678;DHT22;27364;49.026;8.712;2023-02-28T09:03:41;1.60;99.90
41678;DHT22;27364;49.026;8.712;2023-02-28T09:06:08;1.60;99.90
41678;DHT22;27364;49.026;8.712;2023-02-28T09:08:35;1.60;99.90
41678;DHT22;27364;49.026;8.712;2023-02-28T09:11:02;1.70;99.90
41678;DHT22;27364;49.026;8.712;2023-02-28T09:13:31;1.70;99.90
41678;DHT22;27364;49.026;8.712;2023-02-28T09:16:01;1.70;99.90
41678;DHT22;27364;49.026;8.712;2023-02-28T09:18:27;1.80;99.90
41678;DHT22;27364;49.026;8.712;2023-02-28T09:20:53;1.80;99.90
41678;DHT22;27364;49.026;8.712;2023-02-28T09:23:19;1.90;99.90
41678;DHT22;27364;49.026;8.712;2023-02-28T09:25:49;2.00;99.90
41678;DHT22;27364;49.026;8.712;2023-02-28T09:28:16;2.00;99.60
41678;DHT22;27364;49.026;8.712;2023-02-28T09:30:45;2.10;99.70
41678;DHT22;27364;49.026;8.712;2023-02-28T09:33:11;2.10;99.60
41678;DHT22;27364;49.026;8.712;2023-02-28T09:35:36;2.20;99.40
41678;DHT22;27364;49.026;8.712;2023-02-28T09:38:03;2.20;99.20
41678;DHT22;27364;49.026;8.712;2023-02-28T09:40:29;2.20;99.00
41678;DHT22;27364;49.026;8.712;2023-02-28T09:42:57;2.30;99.20
41678;DHT22;27364;49.026;8.712;2023-02-28T09:45:36;2.30;99.20
41678;DHT22;27364;49.026;8.712;2023-02-28T09:48:12;2.30;99.30
41678;DHT22;27364;49.026;8.712;2023-02-28T09:50:46;2.30;98.50
41678;DHT22;27364;49.026;8.712;2023-02-28T09:53:28;2.30;99.00
41678;DHT22;27364;49.026;8.712;2023-02-28T09:56:10;2.30;98.80
41678;DHT22;27364;49.026;8.712;2023-02-28T10:01:58;2.30;98.70
41678;DHT22;27364;49.026;8.712;2023-02-28T10:05:07;2.30;98.70
41678;DHT22;27364;49.026;8.712;2023-02-28T10:07:48;2.30;98.90
41678;DHT22;27364;49.026;8.712;2023-02-28T10:12:54;2.40;98.60
41678;DHT22;27364;49.026;8.712;2023-02-28T10:15:23;2.50;98.70
41678;DHT22;27364;49.026;8.712;2023-02-28T10:17:54;2.50;97.20
41678;DHT22;27364;49.026;8.712;2023-02-28T10:20:23;2.50;97.50
41678;DHT22;27364;49.026;8.712;2023-02-28T10:23:19;2.60;97.50
41678;DHT22;27364;49.026;8.712;2023-02-28T10:25:50;2.60;97.20
41678;DHT22;27364;49.026;8.712;2023-02-28T10:28:18;2.60;97.40
41678;DHT22;27364;49.026;8.712;2023-02-28T10:30:51;2.70;97.30
41678;DHT22;27364;49.026;8.712;2023-02-28T10:35:47;2.70;96.80
41678;DHT22;27364;49.026;8.712;2023-02-28T10:38:34;2.90;97.60
41678;DHT22;27364;49.026;8.712;2023-02-28T10:41:13;3.10;97.30
41678;DHT22;27364;49.026;8.712;2023-02-28T10:43:41;3.30;96.00
41678;DHT22;27364;49.026;8.712;2023-02-28T10:48:41;3.80;94.20
41678;DHT22;27364;49.026;8.712;2023-02-28T10:51:11;3.80;93.80
41678;DHT22;27364;49.026;8.712;2023-02-28T10:53:47;3.70;93.30
41678;DHT22;27364;49.026;8.712;2023-02-28T11:01:52;3.50;92.50
41678;DHT22;27364;49.026;8.712;2023-02-28T11:04:00;3.40;92.10
41678;DHT22;27364;49.026;8.712;2023-02-28T11:06:29;3.40;92.00
41678;DHT22;27364;49.026;8.712;2023-02-28T11:09:00;3.40;92.50
41678;DHT22;27364;49.026;8.712;2023-02-28T11:11:29;3.40;92.80
41678;DHT22;27364;49.026;8.712;2023-02-28T11:14:03;3.50;93.10
41678;DHT22;27364;49.026;8.712;2023-02-28T11:16:34;3.50;92.40
41678;DHT22;27364;49.026;8.712;2023-02-28T11:19:02;3.50;91.60
41678;DHT22;27364;49.026;8.712;2023-02-28T11:21:35;3.50;92.80
41678;DHT22;27364;49.026;8.712;2023-02-28T11:24:30;3.50;92.20
41678;DHT22;27364;49.026;8.712;2023-02-28T11:26:57;3.50;92.10
41678;DHT22;27364;49.026;8.712;2023-02-28T11:29:27;3.50;92.10
41678;DHT22;27364;49.026;8.712;2023-02-28T11:34:40;3.60;92.40
41678;DHT22;27364;49.026;8.712;2023-02-28T11:37:09;3.60;92.00
41678;DHT22;27364;49.026;8.712;2023-02-28T11:39:36;3.70;91.60
41678;DHT22;27364;49.026;8.712;2023-02-28T11:50:51;4.00;92.10
41678;DHT22;27364;49.026;8.712;2023-02-28T11:56:25;4.50;90.40
41678;DHT22;27364;49.026;8.712;2023-02-28T11:59:10;4.50;90.40
41678;DHT22;27364;49.026;8.712;2023-02-28T12:02:15;4.60;90.00
41678;DHT22;27364;49.026;8.712;2023-02-28T12:13:26;4.70;89.50
41678;DHT22;27364;49.026;8.712;2023-02-28T12:21:35;4.70;87.40
41678;DHT22;27364;49.026;8.712;2023-02-28T12:26:40;4.80;87.30
41678;DHT22;27364;49.026;8.712;2023-02-28T12:29:17;4.90;86.80
41678;DHT22;27364;49.026;8.712;2023-02-28T12:32:09;5.00;86.10
41678;DHT22;27364;49.026;8.712;2023-02-28T12:34:55;5.20;86.40
41678;DHT22;27364;49.026;8.712;2023-02-28T12:37:47;5.30;85.20
41678;DHT22;27364;49.026;8.712;2023-02-28T12:40:28;5.40;84.90
41678;DHT22;27364;49.026;8.712;2023-02-28T12:43:02;5.40;84.40
41678;DHT22;27364;49.026;8.712;2023-02-28T12:45:56;5.40;83.20
41678;DHT22;27364;49.026;8.712;2023-02-28T12:48:37;5.40;83.10
41678;DHT22;27364;49.026;8.712;2023-02-28T12:51:05;5.30;83.50
41678;DHT22;27364;49.026;8.712;2023-02-28T12:53:39;5.20;83.40
41678;DHT22;27364;49.026;8.712;2023-02-28T13:10:04;5.80;79.80
41678;DHT22;27364;49.026;8.712;2023-02-28T13:12:31;5.90;81.40
41678;DHT22;27364;49.026;8.712;2023-02-28T13:15:21;6.10;80.30
41678;DHT22;27364;49.026;8.712;2023-02-28T13:17:51;6.20;79.00
41678;DHT22;27364;49.026;8.712;2023-02-28T13:20:20;6.10;78.60
41678;DHT22;27364;49.026;8.712;2023-02-28T13:22:49;6.10;79.50
41678;DHT22;27364;49.026;8.712;2023-02-28T13:27:47;6.10;78.30
41678;DHT22;27364;49.026;8.712;2023-02-28T13:34:04;6.10;78.40
41678;DHT22;27364;49.026;8.712;2023-02-28T13:38:54;6.90;79.20
41678;DHT22;27364;49.026;8.712;2023-02-28T13:55:03;7.50;73.50
41678;DHT22;27364;49.026;8.712;2023-02-28T14:06:27;6.90;73.90
41678;DHT22;27364;49.026;8.712;2023-02-28T14:11:30;6.80;74.40
41678;DHT22;27364;49.026;8.712;2023-02-28T14:13:57;6.80;74.70
41678;DHT22;27364;49.026;8.712;2023-02-28T14:16:28;7.10;75.60
41678;DHT22;27364;49.026;8.712;2023-02-28T14:19:30;7.10;73.10
41678;DHT22;27364;49.026;8.712;2023-02-28T14:25:04;7.00;73.80
41678;DHT22;27364;49.026;8.712;2023-02-28T14:27:50;6.90;73.90
41678;DHT22;27364;49.026;8.712;2023-02-28T14:30:39;7.00;73.90
41678;DHT22;27364;49.026;8.712;2023-02-28T14:36:07;7.30;74.80
41678;DHT22;27364;49.026;8.712;2023-02-28T14:38:45;7.50;73.00
41678;DHT22;27364;49.026;8.712;2023-02-28T14:41:32;7.80;72.70
41678;DHT22;27364;49.026;8.712;2023-02-28T14:44:02;8.00;70.50
41678;DHT22;27364;49.026;8.712;2023-02-28T14:46:39;8.00;70.00
41678;DHT22;27364;49.026;8.712;2023-02-28T14:49:06;7.80;69.50
41678;DHT22;27364;49.026;8.712;2023-02-28T14:51:33;7.80;70.10
41678;DHT22;27364;49.026;8.712;2023-02-28T14:54:01;8.00;71.20
41678;DHT22;27364;49.026;8.712;2023-02-28T14:56:35;8.20;68.70
41678;DHT22;27364;49.026;8.712;2023-02-28T14:59:02;8.50;69.70
41678;DHT22;27364;49.026;8.712;2023-02-28T15:01:27;8.60;66.10
41678;DHT22;27364;49.026;8.712;2023-02-28T15:04:03;8.50;67.40
41678;DHT22;27364;49.026;8.712;2023-02-28T15:06:29;8.40;66.10
41678;DHT22;27364;49.026;8.712;2023-02-28T15:09:16;8.50;66.80
41678;DHT22;27364;49.026;8.712;2023-02-28T15:11:45;8.60;67.50
41678;DHT22;27364;49.026;8.712;2023-02-28T15:14:18;8.50;66.20
41678;DHT22;27364;49.026;8.712;2023-02-28T15:16:48;8.50;66.60
41678;DHT22;27364;49.026;8.712;2023-02-28T15:19:27;8.40;64.10
41678;DHT22;27364;49.026;8.712;2023-02-28T15:22:04;8.20;66.00
41678;DHT22;27364;49.026;8.712;2023-02-28T15:24:51;8.20;66.50
41678;DHT22;27364;49.026;8.712;2023-02-28T15:27:22;8.10;66.70
41678;DHT22;27364;49.026;8.712;2023-02-28T15:29:54;8.00;66.30
41678;DHT22;27364;49.026;8.712;2023-02-28T15:34:52;7.90;66.60
41678;DHT22;27364;49.026;8.712;2023-02-28T15:37:45;7.90;66.70
41678;DHT22;27364;49.026;8.712;2023-02-28T15:42:38;7.80;66.50
41678;DHT22;27364;49.026;8.712;2023-02-28T15:45:04;7.70;66.40
41678;DHT22;27364;49.026;8.712;2023-02-28T15:47:30;7.70;67.20
41678;DHT22;27364;49.026;8.712;2023-02-28T15:50:04;7.60;67.00
41678;DHT22;27364;49.026;8.712;2023-02-28T15:52:42;7.50;67.20
41678;DHT22;27364;49.026;8.712;2023-02-28T15:55:15;7.60;67.00
41678;DHT22;27364;49.026;8.712;2023-02-28T15:57:44;7.50;67.50
41678;DHT22;27364;49.026;8.712;2023-02-28T16:00:14;7.50;67.70
41678;DHT22;27364;49.026;8.712;2023-02-28T16:02:40;7.40;67.40
41678;DHT22;27364;49.026;8.712;2023-02-28T16:07:32;7.20;67.70
41678;DHT22;27364;49.026;8.712;2023-02-28T16:09:58;7.00;68.00
41678;DHT22;27364;49.026;8.712;2023-02-28T16:12:30;6.90;68.30
41678;DHT22;27364;49.026;8.712;2023-02-28T16:14:59;6.90;69.00
41678;DHT22;27364;49.026;8.712;2023-02-28T16:17:30;6.90;69.80
41678;DHT22;27364;49.026;8.712;2023-02-28T16:19:56;6.90;69.20
41678;DHT22;27364;49.026;8.712;2023-02-28T16:22:23;6.90;68.70
41678;DHT22;27364;49.026;8.712;2023-02-28T16:24:49;6.90;69.00
41678;DHT22;27364;49.026;8.712;2023-02-28T16:27:21;6.80;68.80
41678;DHT22;27364;49.026;8.712;2023-02-28T16:29:50;6.80;69.20
41678;DHT22;27364;49.026;8.712;2023-02-28T16:32:16;6.80;69.40
41678;DHT22;27364;49.026;8.712;2023-02-28T16:34:43;6.70;69.60
41678;DHT22;27364;49.026;8.712;2023-02-28T16:37:15;6.60;69.20
41678;DHT22;27364;49.026;8.712;2023-02-28T16:39:42;6.60;70.20
41678;DHT22;27364;49.026;8.712;2023-02-28T16:42:23;6.50;69.90
41678;DHT22;27364;49.026;8.712;2023-02-28T16:44:50;6.40;70.20
41678;DHT22;27364;49.026;8.712;2023-02-28T16:47:17;6.20;70.80
41678;DHT22;27364;49.026;8.712;2023-02-28T16:49:44;6.10;70.30
41678;DHT22;27364;49.026;8.712;2023-02-28T16:52:11;5.90;71.80
41678;DHT22;27364;49.026;8.712;2023-02-28T16:54:38;5.80;72.80
41678;DHT22;27364;49.026;8.712;2023-02-28T16:57:05;5.60;73.10
41678;DHT22;27364;49.026;8.712;2023-02-28T16:59:32;5.50;73.60
41678;DHT22;27364;49.026;8.712;2023-02-28T17:01:58;5.50;73.20
41678;DHT22;27364;49.026;8.712;2023-02-28T17:04:26;5.30;74.00
41678;DHT22;27364;49.026;8.712;2023-02-28T17:06:52;5.10;75.20
41678;DHT22;27364;49.026;8.712;2023-02-28T17:09:20;5.10;75.20
41678;DHT22;27364;49.026;8.712;2023-02-28T17:11:46;5.00;75.40
41678;DHT22;27364;49.026;8.712;2023-02-28T17:14:12;4.90;75.40
41678;DHT22;27364;49.026;8.712;2023-02-28T17:16:38;4.80;76.60
41678;DHT22;27364;49.026;8.712;2023-02-28T17:19:11;4.70;76.70
41678;DHT22;27364;49.026;8.712;2023-02-28T17:21:39;4.60;76.00
41678;DHT22;27364;49.026;8.712;2023-02-28T17:24:07;4.60;77.00
41678;DHT22;27364;49.026;8.712;2023-02-28T17:26:32;4.50;77.10
41678;DHT22;27364;49.026;8.712;2023-02-28T17:28:58;4.40;77.60
41678;DHT22;27364;49.026;8.712;2023-02-28T17:31:27;4.30;77.90
41678;DHT22;27364;49.026;8.712;2023-02-28T17:33:53;4.30;78.40
41678;DHT22;27364;49.026;8.712;2023-02-28T17:36:24;4.30;78.60
41678;DHT22;27364;49.026;8.712;2023-02-28T17:38:52;4.20;79.00
41678;DHT22;27364;49.026;8.712;2023-02-28T17:41:18;4.10;79.80
41678;DHT22;27364;49.026;8.712;2023-02-28T17:43:44;4.00;80.30
41678;DHT22;27364;49.026;8.712;2023-02-28T17:46:17;3.90;80.80
41678;DHT22;27364;49.026;8.712;2023-02-28T17:48:43;3.80;81.00
41678;DHT22;27364;49.026;8.712;2023-02-28T17:51:12;3.80;81.70
41678;DHT22;27364;49.026;8.712;2023-02-28T17:53:38;3.80;81.40
41678;DHT22;27364;49.026;8.712;2023-02-28T17:56:03;3.70;82.00
41678;DHT22;27364;49.026;8.712;2023-02-28T17:58:29;3.70;81.90
41678;DHT22;27364;49.026;8.712;2023-02-28T18:00:56;3.70;82.60
41678;DHT22;27364;49.026;8.712;2023-02-28T18:03:22;3.60;82.30
41678;DHT22;27364;49.026;8.712;2023-02-28T18:05:49;3.60;82.40
41678;DHT22;27364;49.026;8.712;2023-02-28T18:08:15;3.60;83.00
41678;DHT22;27364;49.026;8.712;2023-02-28T18:10:41;3.50;82.50
41678;DHT22;27364;49.026;8.712;2023-02-28T18:13:07;3.50;83.30
41678;DHT22;27364;49.026;8.712;2023-02-28T18:15:33;3.40;83.70
41678;DHT22;27364;49.026;8.712;2023-02-28T18:17:58;3.40;84.20
41678;DHT22;27364;49.026;8.712;2023-02-28T18:20:24;3.20;84.20
41678;DHT22;27364;49.026;8.712;2023-02-28T18:22:50;3.10;85.20